Time;durP1;ratioP1;P1;durP2;ratioP2;P2;SDS_P1;SDS_P2;PMS_P1;PMS_P2;Temp;Humidity;BMP_temperature;BMP_pressure;BME280_temperature;BME280_humidity;BME280_pressure;Samples;Min_cycle;Max_cycle;Signal;HPM_P1;HPM_P2
2023/12/17 00:02:23;;;;;;;1999.90;999.90;;;8.90;99.90;;;;;;5049565;28;20486;-72
2023/12/17 00:04:50;;;;;;;1999.90;999.90;;;8.80;99.90;;;;;;5050554;28;20462;-74
2023/12/17 00:07:16;;;;;;;1999.90;999.90;;;8.80;99.90;;;;;;5049966;28;20409;-74
2023/12/17 00:09:43;;;;;;;1999.90;999.90;;;8.70;99.90;;;;;;5050739;28;20488;-72
2023/12/17 00:12:09;;;;;;;1999.90;999.90;;;8.70;99.90;;;;;;5050082;28;20425;-73
2023/12/17 00:14:36;;;;;;;1999.90;999.90;;;8.70;99.90;;;;;;5049892;28;20409;-73
2023/12/17 00:17:04;;;;;;;1999.90;999.90;;;8.70;99.90;;;;;;5050269;28;20417;-73
2023/12/17 00:19:31;;;;;;;1999.90;999.90;;;8.70;99.90;;;;;;5049819;28;20417;-73
2023/12/17 00:21:58;;;;;;;1999.90;999.90;;;8.80;99.90;;;;;;5049804;28;20833;-73
2023/12/17 00:24:24;;;;;;;1999.90;999.90;;;8.70;99.90;;;;;;5043682;28;20487;-71
2023/12/17 00:26:54;;;;;;;1999.90;999.90;;;8.80;99.90;;;;;;5049811;28;20432;-73
2023/12/17 00:29:21;;;;;;;1999.90;999.90;;;8.70;99.90;;;;;;5049740;28;20425;-74
2023/12/17 00:31:48;;;;;;;1999.90;999.90;;;8.80;99.90;;;;;;5044674;28;20471;-73
2023/12/17 00:34:16;;;;;;;1999.90;999.90;;;9.00;99.90;;;;;;5052133;28;20409;-75
2023/12/17 00:36:42;;;;;;;1999.90;999.90;;;8.90;99.90;;;;;;5050345;28;20459;-72
2023/12/17 00:39:09;;;;;;;1999.90;999.90;;;9.00;99.90;;;;;;5044633;28;20822;-74
2023/12/17 00:41:36;;;;;;;1999.90;999.90;;;9.10;99.90;;;;;;5046564;28;20443;-75
2023/12/17 00:44:02;;;;;;;1999.90;999.90;;;9.00;99.90;;;;;;5050585;28;20440;-74
2023/12/17 00:46:29;;;;;;;1999.90;999.90;;;9.00;99.90;;;;;;5051516;28;20424;-74
2023/12/17 00:48:56;;;;;;;1999.90;999.90;;;9.00;99.90;;;;;;5049536;28;20409;-74
2023/12/17 00:51:24;;;;;;;1999.90;999.90;;;8.90;99.90;;;;;;5048551;28;20417;-74
2023/12/17 00:53:50;;;;;;;1999.90;999.90;;;9.00;99.90;;;;;;5049636;28;20478;-75
2023/12/17 00:56:17;;;;;;;1999.90;999.90;;;8.90;99.90;;;;;;5049707;28;20486;-72
2023/12/17 00:58:44;;;;;;;1999.90;999.90;;;8.90;99.90;;;;;;5049725;28;20842;-72
2023/12/17 01:01:10;;;;;;;1999.90;999.90;;;8.70;99.90;;;;;;5052963;28;20471;-72
2023/12/17 01:03:37;;;;;;;1999.90;999.90;;;8.70;99.90;;;;;;5053815;28;20476;-73
2023/12/17 01:06:04;;;;;;;1999.90;999.90;;;8.60;99.90;;;;;;5050472;28;20433;-72
2023/12/17 01:08:32;;;;;;;1999.90;999.90;;;8.70;99.90;;;;;;5051261;28;20951;-72
2023/12/17 01:10:58;;;;;;;1999.90;999.90;;;8.70;99.90;;;;;;5052584;28;20914;-74
2023/12/17 01:13:25;;;;;;;1999.90;999.90;;;8.80;99.90;;;;;;5053886;28;20425;-73
2023/12/17 01:15:52;;;;;;;1999.90;999.90;;;9.00;99.90;;;;;;5053410;28;20462;-74
2023/12/17 01:18:18;;;;;;;1999.90;999.90;;;9.00;99.90;;;;;;5055128;28;20421;-71
2023/12/17 01:20:45;;;;;;;1999.90;999.90;;;9.10;99.90;;;;;;5050559;28;20437;-74
2023/12/17 01:23:12;;;;;;;1999.90;999.90;;;9.00;99.90;;;;;;5053277;28;20443;-74
2023/12/17 01:25:40;;;;;;;1999.90;999.90;;;8.90;99.90;;;;;;5053757;28;20429;-74
2023/12/17 01:28:07;;;;;;;1999.90;999.90;;;9.00;99.90;;;;;;5054040;28;20467;-75
2023/12/17 01:30:33;;;;;;;1999.90;999.90;;;9.00;99.90;;;;;;5053881;28;20490;-73
2023/12/17 01:33:00;;;;;;;1999.90;999.90;;;8.90;99.90;;;;;;5053820;28;20410;-76
2023/12/17 01:35:26;;;;;;;1999.90;999.90;;;8.90;99.90;;;;;;5052938;28;20432;-73
2023/12/17 01:37:53;;;;;;;1999.90;999.90;;;9.10;99.90;;;;;;5048998;28;20432;-73
2023/12/17 01:40:20;;;;;;;1999.90;999.90;;;9.00;99.90;;;;;;5053881;28;20447;-75
2023/12/17 01:42:48;;;;;;;1999.90;999.90;;;9.10;99.90;;;;;;5054075;28;20409;-74
2023/12/17 01:45:14;;;;;;;1999.90;999.90;;;9.20;99.90;;;;;;5054272;28;20429;-74
2023/12/17 01:47:41;;;;;;;1999.90;999.90;;;9.00;99.90;;;;;;5054369;28;20491;-73
2023/12/17 01:50:09;;;;;;;1999.90;999.90;;;9.00;99.90;;;;;;5052962;28;21042;-73
2023/12/17 01:52:36;;;;;;;1999.90;999.90;;;9.00;99.90;;;;;;5054712;28;20502;-73
2023/12/17 01:55:03;;;;;;;1999.90;999.90;;;8.80;99.90;;;;;;5054887;28;20409;-74
2023/12/17 01:57:31;;;;;;;1999.90;999.90;;;8.90;99.90;;;;;;5054765;28;20413;-74
2023/12/17 01:59:59;;;;;;;1999.90;999.90;;;8.80;99.90;;;;;;5054775;28;20467;-72
2023/12/17 02:02:26;;;;;;;1999.90;999.90;;;8.80;99.90;;;;;;5053633;28;20452;-75
2023/12/17 02:04:53;;;;;;;1999.90;999.90;;;8.80;99.90;;;;;;5054779;28;20425;-74
2023/12/17 02:07:20;;;;;;;1999.90;999.90;;;8.70;99.90;;;;;;5054814;28;20474;-74
2023/12/17 02:09:47;;;;;;;1999.90;999.90;;;8.70;99.90;;;;;;5054057;28;20413;-73
2023/12/17 02:12:24;;;;;;;1999.90;999.90;;;8.70;99.90;;;;;;5054583;28;20417;-73
2023/12/17 02:14:50;;;;;;;1999.90;999.90;;;8.70;99.90;;;;;;5051017;28;20503;-74
2023/12/17 02:17:28;;;;;;;1999.90;999.90;;;8.60;99.90;;;;;;5050821;28;20854;-73
2023/12/17 02:19:55;;;;;;;1999.90;999.90;;;8.50;99.90;;;;;;5049005;28;20429;-72
2023/12/17 02:22:23;;;;;;;1999.90;999.90;;;8.50;99.90;;;;;;5054483;28;20421;-74
2023/12/17 02:24:51;;;;;;;1999.90;999.90;;;8.50;99.90;;;;;;5052830;28;20429;-75
2023/12/17 02:27:21;;;;;;;1999.90;999.90;;;8.40;99.90;;;;;;5053488;28;20444;-75
2023/12/17 02:29:48;;;;;;;1999.90;999.90;;;8.50;99.90;;;;;;5048141;28;20435;-73
2023/12/17 02:32:15;;;;;;;1999.90;999.90;;;8.50;99.90;;;;;;5052745;28;20821;-73
2023/12/17 02:34:41;;;;;;;1999.90;999.90;;;8.30;99.90;;;;;;5051774;28;20899;-70
2023/12/17 02:37:08;;;;;;;1999.90;999.90;;;8.20;99.90;;;;;;5052950;28;20487;-73
2023/12/17 02:39:35;;;;;;;1999.90;999.90;;;8.20;99.90;;;;;;5052048;28;20441;-73
2023/12/17 02:42:03;;;;;;;1999.90;999.90;;;8.20;99.90;;;;;;5052555;28;20447;-69
2023/12/17 02:44:30;;;;;;;1999.90;999.90;;;8.30;99.90;;;;;;5052114;28;20439;-74
2023/12/17 02:46:57;;;;;;;1999.90;999.90;;;8.30;99.90;;;;;;5054288;28;20409;-73
2023/12/17 02:49:24;;;;;;;1999.90;999.90;;;8.40;99.90;;;;;;5052974;28;20421;-73
2023/12/17 02:51:51;;;;;;;1999.90;999.90;;;8.60;99.90;;;;;;5053130;28;20409;-73
2023/12/17 02:54:18;;;;;;;1999.90;999.90;;;8.60;99.90;;;;;;5054275;28;20933;-75
2023/12/17 02:56:45;;;;;;;1999.90;999.90;;;8.50;99.90;;;;;;5048377;28;20429;-71
2023/12/17 02:59:14;;;;;;;1999.90;999.90;;;8.50;99.90;;;;;;5054016;28;20887;-74
2023/12/17 03:01:41;;;;;;;1999.90;999.90;;;8.50;99.90;;;;;;5054210;28;20409;-75
2023/12/17 03:04:08;;;;;;;1999.90;999.90;;;8.70;99.90;;;;;;5052629;28;20456;-74
2023/12/17 03:06:35;;;;;;;1999.90;999.90;;;8.50;99.90;;;;;;5051192;28;20433;-75
2023/12/17 03:09:01;;;;;;;1999.90;999.90;;;8.60;99.90;;;;;;5049824;28;20857;-75
2023/12/17 03:11:28;;;;;;;1999.90;999.90;;;8.70;99.90;;;;;;5050930;28;20417;-75
2023/12/17 03:13:55;;;;;;;1999.90;999.90;;;8.60;99.90;;;;;;5051752;28;20421;-73
2023/12/17 03:16:24;;;;;;;1999.90;999.90;;;8.60;99.90;;;;;;5052526;28;20406;-75
2023/12/17 03:18:51;;;;;;;1999.90;999.90;;;8.60;99.90;;;;;;5050947;28;20409;-73
2023/12/17 03:21:18;;;;;;;1999.90;999.90;;;8.60;99.90;;;;;;5051691;28;20492;-74
2023/12/17 03:23:44;;;;;;;1999.90;999.90;;;8.60;99.90;;;;;;5050730;28;20854;-75
2023/12/17 03:26:11;;;;;;;1999.90;999.90;;;8.50;99.90;;;;;;5052243;28;20837;-75
2023/12/17 03:28:38;;;;;;;1999.90;999.90;;;8.40;99.90;;;;;;5053056;28;20765;-74
2023/12/17 03:31:05;;;;;;;1999.90;999.90;;;8.50;99.90;;;;;;5052825;28;20417;-75
2023/12/17 03:33:33;;;;;;;1999.90;999.90;;;8.50;99.90;;;;;;5052473;28;20417;-74
2023/12/17 03:35:59;;;;;;;1999.90;999.90;;;8.50;99.90;;;;;;5054057;28;20409;-73
2023/12/17 03:38:27;;;;;;;1999.90;999.90;;;8.50;99.90;;;;;;5050343;28;20486;-74
2023/12/17 03:40:53;;;;;;;1999.90;999.90;;;8.40;99.90;;;;;;5052718;28;20424;-75
2023/12/17 03:43:20;;;;;;;1999.90;999.90;;;8.40;99.90;;;;;;5051677;28;20463;-75
2023/12/17 03:45:47;;;;;;;1999.90;999.90;;;8.20;99.90;;;;;;5051668;28;20437;-75
2023/12/17 03:48:13;;;;;;;1999.90;999.90;;;8.30;99.90;;;;;;5052883;28;20902;-75
2023/12/17 03:50:41;;;;;;;1999.90;999.90;;;8.40;99.90;;;;;;5052611;28;20417;-73
2023/12/17 03:53:10;;;;;;;1999.90;999.90;;;8.40;99.90;;;;;;5046843;28;20433;-73
2023/12/17 03:55:37;;;;;;;1999.90;999.90;;;8.40;99.90;;;;;;5052403;28;20501;-72
2023/12/17 03:58:04;;;;;;;1999.90;999.90;;;8.30;99.90;;;;;;5051606;28;20977;-73
2023/12/17 04:00:31;;;;;;;1999.90;999.90;;;8.30;99.90;;;;;;5051317;28;20423;-76
2023/12/17 04:02:58;;;;;;;1999.90;999.90;;;8.10;99.90;;;;;;5050801;28;20421;-73
2023/12/17 04:05:25;;;;;;;1999.90;999.90;;;8.00;99.90;;;;;;5050313;28;20834;-72
2023/12/17 04:07:54;;;;;;;1999.90;999.90;;;8.00;99.90;;;;;;5049906;28;20423;-75
2023/12/17 04:10:20;;;;;;;1999.90;999.90;;;7.90;99.90;;;;;;5050494;28;20421;-76
2023/12/17 04:12:47;;;;;;;1999.90;999.90;;;7.90;99.90;;;;;;5051906;28;20416;-75
2023/12/17 04:15:15;;;;;;;1999.90;999.90;;;7.90;99.90;;;;;;5052034;28;20459;-74
2023/12/17 04:17:41;;;;;;;1999.90;999.90;;;7.90;99.90;;;;;;5051806;28;20413;-73
2023/12/17 04:20:09;;;;;;;1999.90;999.90;;;8.00;99.90;;;;;;5052103;28;20903;-75
2023/12/17 04:22:36;;;;;;;1999.90;999.90;;;8.00;99.90;;;;;;5050027;28;20437;-72
2023/12/17 04:25:04;;;;;;;1999.90;999.90;;;8.00;99.90;;;;;;5051475;28;20425;-73
2023/12/17 04:27:31;;;;;;;1999.90;999.90;;;7.90;99.90;;;;;;5051831;28;20413;-73
2023/12/17 04:29:58;;;;;;;1999.90;999.90;;;8.10;99.90;;;;;;5051907;28;20896;-75
2023/12/17 04:32:25;;;;;;;1999.90;999.90;;;8.10;99.90;;;;;;5051806;28;20418;-72
2023/12/17 04:34:55;;;;;;;1999.90;999.90;;;8.10;99.90;;;;;;5049567;28;20433;-75
2023/12/17 04:37:22;;;;;;;1999.90;999.90;;;8.50;99.90;;;;;;5052314;28;20417;-73
2023/12/17 04:39:49;;;;;;;1999.90;999.90;;;8.20;99.90;;;;;;5042770;28;20409;-73
2023/12/17 04:42:17;;;;;;;1999.90;999.90;;;8.10;99.90;;;;;;5049827;28;20463;-73
2023/12/17 04:44:44;;;;;;;1999.90;999.90;;;8.00;99.90;;;;;;5049843;28;20429;-73
2023/12/17 04:47:11;;;;;;;1999.90;999.90;;;8.00;99.90;;;;;;5049666;28;20437;-73
2023/12/17 04:49:39;;;;;;;1999.90;999.90;;;8.00;99.90;;;;;;5050384;28;20514;-75
2023/12/17 04:52:06;;;;;;;1999.90;999.90;;;8.20;99.90;;;;;;5051487;28;20440;-73
2023/12/17 04:54:33;;;;;;;1999.90;999.90;;;8.20;99.90;;;;;;5052075;28;20467;-73
2023/12/17 04:56:59;;;;;;;1999.90;999.90;;;8.30;99.90;;;;;;5051953;28;20413;-75
2023/12/17 04:59:27;;;;;;;1999.90;999.90;;;8.20;99.90;;;;;;5047686;28;20416;-75
2023/12/17 05:01:54;;;;;;;1999.90;999.90;;;8.20;99.90;;;;;;5052136;28;20914;-74
2023/12/17 05:04:21;;;;;;;1999.90;999.90;;;8.30;99.90;;;;;;5048763;28;20968;-75
2023/12/17 05:06:48;;;;;;;1999.90;999.90;;;8.20;99.90;;;;;;5051155;28;20433;-75
2023/12/17 05:09:14;;;;;;;1999.90;999.90;;;8.20;99.90;;;;;;5051181;28;20417;-75
2023/12/17 05:11:41;;;;;;;1999.90;999.90;;;8.10;99.90;;;;;;5051701;28;20462;-75
2023/12/17 05:14:08;;;;;;;1999.90;999.90;;;8.00;99.90;;;;;;5051355;28;20409;-75
2023/12/17 05:16:36;;;;;;;1999.90;999.90;;;8.10;99.90;;;;;;5051482;28;20405;-74
2023/12/17 05:19:02;;;;;;;1999.90;999.90;;;8.20;99.90;;;;;;5047694;28;20447;-74
2023/12/17 05:21:29;;;;;;;1999.90;999.90;;;8.20;99.90;;;;;;5051060;28;20413;-74
2023/12/17 05:23:56;;;;;;;1999.90;999.90;;;8.20;99.90;;;;;;5051145;28;20463;-75
2023/12/17 05:26:22;;;;;;;1999.90;999.90;;;8.20;99.90;;;;;;5051031;28;20985;-74
2023/12/17 05:28:49;;;;;;;1999.90;999.90;;;8.20;99.90;;;;;;5044207;28;20819;-75
2023/12/17 05:31:16;;;;;;;1999.90;999.90;;;8.10;99.90;;;;;;5049889;28;20418;-75
2023/12/17 05:33:46;;;;;;;1999.90;999.90;;;8.00;99.90;;;;;;5048829;28;20425;-75
2023/12/17 05:36:13;;;;;;;1999.90;999.90;;;8.10;99.90;;;;;;5049486;28;20437;-75
2023/12/17 05:38:39;;;;;;;1999.90;999.90;;;7.90;99.90;;;;;;5048467;28;20413;-73
2023/12/17 05:41:06;;;;;;;1999.90;999.90;;;7.90;99.90;;;;;;5049475;28;20477;-73
2023/12/17 05:43:35;;;;;;;1999.90;999.90;;;7.80;99.90;;;;;;5049347;28;20471;-72
2023/12/17 05:46:02;;;;;;;1999.90;999.90;;;7.80;99.90;;;;;;5046582;28;20429;-75
2023/12/17 05:48:28;;;;;;;1999.90;999.90;;;8.00;99.90;;;;;;5054367;28;20409;-75
2023/12/17 05:50:56;;;;;;;1999.90;999.90;;;8.10;99.90;;;;;;5055027;28;20417;-72
2023/12/17 05:53:23;;;;;;;1999.90;999.90;;;8.20;99.90;;;;;;5052516;28;20437;-75
2023/12/17 05:55:50;;;;;;;1999.90;999.90;;;8.10;99.90;;;;;;5051284;28;20413;-75
2023/12/17 05:58:16;;;;;;;1999.90;999.90;;;8.20;99.90;;;;;;5053320;28;20420;-75
2023/12/17 06:00:43;;;;;;;1999.90;999.90;;;8.10;99.90;;;;;;5054723;28;20410;-74
2023/12/17 06:03:10;;;;;;;1999.90;999.90;;;8.10;99.90;;;;;;5051523;28;20479;-75
2023/12/17 06:05:36;;;;;;;1999.90;999.90;;;8.20;99.90;;;;;;5052553;28;20494;-74
2023/12/17 06:08:04;;;;;;;1999.90;999.90;;;8.20;99.90;;;;;;5054204;28;20549;-73
2023/12/17 06:10:31;;;;;;;1999.90;999.90;;;8.30;99.90;;;;;;5054882;28;20413;-73
2023/12/17 06:12:58;;;;;;;1999.90;999.90;;;8.30;99.90;;;;;;5054900;28;20457;-74
2023/12/17 06:15:24;;;;;;;1999.90;999.90;;;8.30;99.90;;;;;;5054969;28;20479;-71
2023/12/17 06:17:51;;;;;;;1999.90;999.90;;;8.40;99.90;;;;;;5052513;28;20437;-74
2023/12/17 06:20:18;;;;;;;1999.90;999.90;;;8.40;99.90;;;;;;5053852;28;21091;-73
2023/12/17 06:22:44;;;;;;;1999.90;999.90;;;8.30;99.90;;;;;;5054544;28;20905;-74
2023/12/17 06:25:12;;;;;;;1999.90;999.90;;;8.20;99.90;;;;;;5053396;28;20409;-74
2023/12/17 06:27:39;;;;;;;1999.90;999.90;;;8.10;99.90;;;;;;5052408;28;20475;-74
2023/12/17 06:30:07;;;;;;;1999.90;999.90;;;8.00;99.90;;;;;;5052561;28;20432;-76
2023/12/17 06:32:34;;;;;;;1999.90;999.90;;;8.30;99.90;;;;;;5053581;28;20445;-73
2023/12/17 06:35:01;;;;;;;1999.90;999.90;;;8.20;99.90;;;;;;5054102;28;20413;-73
2023/12/17 06:37:27;;;;;;;1999.90;999.90;;;8.20;99.90;;;;;;5054256;28;20440;-75
2023/12/17 06:39:54;;;;;;;1999.90;999.90;;;8.20;99.90;;;;;;5053256;28;20505;-72
2023/12/17 06:42:22;;;;;;;1999.90;999.90;;;8.30;99.90;;;;;;5054156;28;20417;-73
2023/12/17 06:44:48;;;;;;;1999.90;999.90;;;8.20;99.90;;;;;;5052077;28;20915;-74
2023/12/17 06:47:17;;;;;;;1999.90;999.90;;;8.30;99.90;;;;;;5053421;28;20429;-75
2023/12/17 06:49:43;;;;;;;1999.90;999.90;;;8.30;99.90;;;;;;5052737;28;20863;-74
2023/12/17 06:52:10;;;;;;;1999.90;999.90;;;8.30;99.90;;;;;;5053573;28;20853;-75
2023/12/17 06:54:37;;;;;;;1999.90;999.90;;;8.30;99.90;;;;;;5052193;28;20421;-74
2023/12/17 06:57:04;;;;;;;1999.90;999.90;;;8.30;99.90;;;;;;5052091;28;20455;-74
2023/12/17 06:59:32;;;;;;;1999.90;999.90;;;8.30;99.90;;;;;;5048471;28;20434;-75
2023/12/17 07:01:58;;;;;;;1999.90;999.90;;;8.30;99.90;;;;;;5053566;28;20421;-74
2023/12/17 07:04:25;;;;;;;1999.90;999.90;;;8.30;99.90;;;;;;5053135;28;20409;-73
2023/12/17 07:06:52;;;;;;;1999.90;999.90;;;8.30;99.90;;;;;;5053192;28;20433;-74
2023/12/17 07:09:18;;;;;;;1999.90;999.90;;;8.30;99.90;;;;;;5048897;28;20460;-74
2023/12/17 07:11:45;;;;;;;1999.90;999.90;;;8.30;99.90;;;;;;5052935;28;20413;-75
2023/12/17 07:14:11;;;;;;;1999.90;999.90;;;8.40;99.90;;;;;;5049452;28;20433;-73
2023/12/17 07:16:39;;;;;;;1999.90;999.90;;;8.40;99.90;;;;;;5051029;28;20467;-74
2023/12/17 07:19:06;;;;;;;1999.90;999.90;;;8.40;99.90;;;;;;5051270;28;20965;-75
2023/12/17 07:21:33;;;;;;;1999.90;999.90;;;8.40;99.90;;;;;;5050980;28;20410;-75
2023/12/17 07:24:00;;;;;;;1999.90;999.90;;;8.30;99.90;;;;;;5051028;28;20510;-75
2023/12/17 07:26:26;;;;;;;1999.90;999.90;;;8.40;99.90;;;;;;5051099;28;20429;-75
2023/12/17 07:28:53;;;;;;;1999.90;999.90;;;8.40;99.90;;;;;;5049451;28;20978;-75
2023/12/17 07:31:20;;;;;;;1999.90;999.90;;;8.30;99.90;;;;;;5050047;28;20433;-76
2023/12/17 07:33:48;;;;;;;1999.90;999.90;;;8.40;99.90;;;;;;5050745;28;20471;-75
2023/12/17 07:36:14;;;;;;;1999.90;999.90;;;8.40;99.90;;;;;;5050954;28;20405;-75
2023/12/17 07:38:41;;;;;;;1999.90;999.90;;;8.50;99.90;;;;;;5051633;28;20466;-75
2023/12/17 07:41:08;;;;;;;1999.90;999.90;;;8.40;99.90;;;;;;5051933;28;20960;-75
2023/12/17 07:43:35;;;;;;;1999.90;999.90;;;8.40;99.90;;;;;;5053381;28;20437;-75
2023/12/17 07:46:01;;;;;;;1999.90;999.90;;;8.50;99.90;;;;;;5046449;28;20429;-75
2023/12/17 07:48:28;;;;;;;1999.90;999.90;;;8.50;99.90;;;;;;5046554;28;20919;-75
2023/12/17 07:50:57;;;;;;;1999.90;999.90;;;8.50;99.90;;;;;;5043673;28;20434;-73
2023/12/17 07:53:23;;;;;;;1999.90;999.90;;;8.60;99.90;;;;;;5038419;28;20433;-75
2023/12/17 07:55:50;;;;;;;1999.90;999.90;;;8.60;99.90;;;;;;5038005;28;20435;-71
2023/12/17 07:58:17;;;;;;;1999.90;999.90;;;8.60;99.90;;;;;;5047857;28;20563;-75
2023/12/17 08:00:43;;;;;;;1999.90;999.90;;;8.30;99.90;;;;;;5045404;28;20432;-75
2023/12/17 08:03:10;;;;;;;1999.90;999.90;;;8.40;99.90;;;;;;5047390;28;20492;-71
2023/12/17 08:05:37;;;;;;;1999.90;999.90;;;8.30;99.90;;;;;;5047403;28;20764;-72
2023/12/17 08:08:05;;;;;;;1999.90;999.90;;;8.10;99.90;;;;;;5050388;28;20483;-72
2023/12/17 08:10:31;;;;;;;1999.90;999.90;;;7.90;99.90;;;;;;5049072;28;20413;-73
2023/12/17 08:12:58;;;;;;;1999.90;999.90;;;7.90;99.90;;;;;;5048092;28;20472;-73
2023/12/17 08:15:25;;;;;;;1999.90;999.90;;;7.90;99.90;;;;;;5044950;28;20409;-73
2023/12/17 08:17:51;;;;;;;1999.90;999.90;;;7.80;99.90;;;;;;5048508;28;20895;-73
2023/12/17 08:20:18;;;;;;;1999.90;999.90;;;7.80;99.90;;;;;;5047745;28;20463;-74
2023/12/17 08:22:45;;;;;;;1999.90;999.90;;;7.90;99.90;;;;;;5049899;28;20516;-75
2023/12/17 08:25:13;;;;;;;1999.90;999.90;;;8.10;99.90;;;;;;5050654;28;20622;-75
2023/12/17 08:27:40;;;;;;;1999.90;999.90;;;8.30;99.90;;;;;;5035800;28;20429;-74
2023/12/17 08:30:07;;;;;;;1999.90;999.90;;;8.50;99.90;;;;;;5049430;28;20428;-75
2023/12/17 08:32:34;;;;;;;1999.90;999.90;;;8.60;99.90;;;;;;5040967;28;20436;-75
2023/12/17 08:35:01;;;;;;;1999.90;999.90;;;8.90;99.90;;;;;;5046650;28;20484;-75
2023/12/17 08:37:29;;;;;;;1999.90;999.90;;;9.00;99.90;;;;;;5036673;28;20520;-74
2023/12/17 08:39:56;;;;;;;1999.90;999.90;;;9.00;99.90;;;;;;5048172;28;21002;-72
2023/12/17 08:42:24;;;;;;;1999.90;999.90;;;8.90;99.90;;;;;;5033659;28;20443;-70
2023/12/17 08:44:51;;;;;;;1999.90;999.90;;;9.00;99.90;;;;;;5035923;28;21069;-72
2023/12/17 08:47:18;;;;;;;1999.90;999.90;;;9.00;99.90;;;;;;5032336;28;20463;-73
2023/12/17 08:49:44;;;;;;;1999.90;999.90;;;9.00;99.90;;;;;;5040464;28;20432;-73
2023/12/17 08:52:11;;;;;;;1999.90;999.90;;;9.00;99.90;;;;;;5039778;28;20435;-72
2023/12/17 08:54:38;;;;;;;1999.90;999.90;;;9.10;99.90;;;;;;5034799;28;20518;-73
2023/12/17 08:57:05;;;;;;;1999.90;999.90;;;9.00;99.90;;;;;;5035426;28;20430;-76
2023/12/17 08:59:33;;;;;;;1999.90;999.90;;;8.90;99.90;;;;;;5044162;28;20429;-75
2023/12/17 09:02:00;;;;;;;1999.90;999.90;;;8.90;99.90;;;;;;5040625;28;20440;-73
2023/12/17 09:04:26;;;;;;;1999.90;999.90;;;8.90;99.90;;;;;;5040064;28;20957;-72
2023/12/17 09:06:53;;;;;;;1999.90;999.90;;;8.70;99.90;;;;;;5041043;28;20479;-74
2023/12/17 09:09:19;;;;;;;1999.90;999.90;;;8.60;99.90;;;;;;5040062;28;20484;-71
2023/12/17 09:11:46;;;;;;;1999.90;999.90;;;8.60;99.90;;;;;;5047048;28;20413;-75
2023/12/17 09:14:13;;;;;;;1999.90;999.90;;;8.50;99.90;;;;;;5048373;28;20409;-75
2023/12/17 09:16:41;;;;;;;1999.90;999.90;;;8.40;99.90;;;;;;5048458;28;20424;-74
2023/12/17 09:19:08;;;;;;;1999.90;999.90;;;8.50;99.90;;;;;;5046149;28;20765;-73
2023/12/17 09:21:34;;;;;;;1999.90;999.90;;;8.50;99.90;;;;;;5051059;28;20409;-73
2023/12/17 09:24:01;;;;;;;1999.90;999.90;;;8.40;99.90;;;;;;5046992;28;20429;-73
2023/12/17 09:26:27;;;;;;;1999.90;999.90;;;8.40;99.90;;;;;;5046714;28;20533;-73
2023/12/17 09:28:54;;;;;;;1999.90;999.90;;;8.40;99.90;;;;;;5043360;28;20479;-72
2023/12/17 09:31:21;;;;;;;1999.90;999.90;;;8.50;99.90;;;;;;5044610;28;20429;-73
2023/12/17 09:33:49;;;;;;;1999.90;999.90;;;8.50;99.90;;;;;;5045275;28;20483;-72
2023/12/17 09:36:16;;;;;;;1999.90;999.90;;;8.50;99.90;;;;;;5043615;28;20434;-73
2023/12/17 09:38:43;;;;;;;1999.90;999.90;;;8.50;99.90;;;;;;5051327;28;20425;-73
2023/12/17 09:41:09;;;;;;;1999.90;999.90;;;8.60;99.90;;;;;;5050257;28;20520;-72
2023/12/17 09:43:36;;;;;;;1999.90;999.90;;;8.60;99.90;;;;;;5052423;28;20413;-71
2023/12/17 09:46:03;;;;;;;1999.90;999.90;;;8.60;99.90;;;;;;5048510;28;20915;-74
2023/12/17 09:48:29;;;;;;;1999.90;999.90;;;8.60;99.90;;;;;;5042366;28;20427;-73
2023/12/17 09:50:57;;;;;;;1999.90;999.90;;;8.70;99.90;;;;;;5049428;28;20433;-74
2023/12/17 09:53:24;;;;;;;1999.90;999.90;;;8.60;99.90;;;;;;5040509;28;20475;-73
2023/12/17 09:55:51;;;;;;;1999.90;999.90;;;8.60;99.90;;;;;;5045078;28;20467;-71
2023/12/17 09:58:17;;;;;;;1999.90;999.90;;;8.70;99.90;;;;;;5052569;28;20407;-73
2023/12/17 10:00:44;;;;;;;1999.90;999.90;;;8.60;99.90;;;;;;5051744;28;20907;-69
2023/12/17 10:03:13;;;;;;;1999.90;999.90;;;8.60;99.90;;;;;;5051481;28;20417;-74
2023/12/17 10:05:40;;;;;;;1999.90;999.90;;;8.80;99.90;;;;;;5045843;28;20433;-73
2023/12/17 10:08:08;;;;;;;1999.90;999.90;;;8.80;99.90;;;;;;5050623;28;21494;-73
2023/12/17 10:10:34;;;;;;;1999.90;999.90;;;8.70;99.90;;;;;;5047824;28;20974;-73
2023/12/17 10:13:01;;;;;;;1999.90;999.90;;;8.90;99.90;;;;;;5052367;28;20413;-72
2023/12/17 10:15:35;;;;;;;1999.90;999.90;;;9.00;99.90;;;;;;5052108;28;20413;-73
2023/12/17 10:18:02;;;;;;;1999.90;999.90;;;9.10;99.90;;;;;;5052632;28;20414;-73
2023/12/17 10:20:28;;;;;;;1999.90;999.90;;;9.10;99.90;;;;;;5051040;28;20421;-74
2023/12/17 10:22:59;;;;;;;1999.90;999.90;;;9.10;99.90;;;;;;5047535;28;20428;-71
2023/12/17 10:25:27;;;;;;;1999.90;999.90;;;9.20;99.90;;;;;;5052995;28;20492;-72
2023/12/17 10:27:57;;;;;;;1999.90;999.90;;;9.20;99.90;;;;;;5051020;28;20487;-71
2023/12/17 10:30:28;;;;;;;1999.90;999.90;;;9.40;99.90;;;;;;5041747;28;20465;-72
2023/12/17 10:32:55;;;;;;;1999.90;999.90;;;9.30;99.90;;;;;;5051084;28;20409;-71
2023/12/17 10:35:23;;;;;;;1999.90;999.90;;;9.20;99.90;;;;;;5052081;28;20466;-72
2023/12/17 10:37:52;;;;;;;1999.90;999.90;;;9.20;99.90;;;;;;5052651;28;20408;-72
2023/12/17 10:40:20;;;;;;;1999.90;999.90;;;9.30;99.90;;;;;;5052415;28;20417;-72
2023/12/17 10:42:49;;;;;;;1999.90;999.90;;;9.40;99.90;;;;;;5048574;28;20435;-73
2023/12/17 10:45:17;;;;;;;1999.90;999.90;;;9.60;99.90;;;;;;5047468;28;20454;-72
2023/12/17 10:47:47;;;;;;;1999.90;999.90;;;9.60;99.90;;;;;;5052028;28;20459;-74
2023/12/17 10:50:15;;;;;;;1999.90;999.90;;;9.70;99.90;;;;;;5052157;28;20409;-72
2023/12/17 10:52:41;;;;;;;1999.90;999.90;;;9.70;99.90;;;;;;5051379;28;20486;-72
2023/12/17 10:55:08;;;;;;;1999.90;999.90;;;9.70;99.90;;;;;;5050528;28;20463;-72
2023/12/17 10:57:37;;;;;;;1999.90;999.90;;;9.80;99.90;;;;;;5052086;28;20888;-72
2023/12/17 11:00:08;;;;;;;1999.90;999.90;;;9.80;99.90;;;;;;5052261;28;20422;-72
2023/12/17 11:02:35;;;;;;;1999.90;999.90;;;9.90;99.90;;;;;;5052316;28;20417;-72
2023/12/17 11:05:02;;;;;;;1999.90;999.90;;;9.90;99.90;;;;;;5052281;28;20413;-72
2023/12/17 11:07:30;;;;;;;1999.90;999.90;;;10.00;99.90;;;;;;5051128;28;20993;-73
2023/12/17 11:09:58;;;;;;;1999.90;999.90;;;10.00;99.90;;;;;;5050088;28;20788;-72
2023/12/17 11:12:25;;;;;;;1999.90;999.90;;;10.20;99.90;;;;;;5052059;28;20405;-72
2023/12/17 11:14:52;;;;;;;1999.90;999.90;;;10.10;99.90;;;;;;5051198;28;20408;-72
2023/12/17 11:17:21;;;;;;;1999.90;999.90;;;10.10;99.90;;;;;;5051790;28;20464;-71
2023/12/17 11:19:57;;;;;;;1999.90;999.90;;;10.00;99.90;;;;;;5051569;28;20440;-72
2023/12/17 11:22:24;;;;;;;1999.90;999.90;;;9.90;99.90;;;;;;5046253;28;20481;-73
2023/12/17 11:24:53;;;;;;;1999.90;999.90;;;9.90;99.90;;;;;;5051613;28;20547;-72
2023/12/17 11:27:22;;;;;;;1999.90;999.90;;;10.00;99.90;;;;;;5051904;28;20504;-73
2023/12/17 11:29:50;;;;;;;1999.90;999.90;;;10.10;99.90;;;;;;5051278;28;20413;-72
2023/12/17 11:32:17;;;;;;;1999.90;999.90;;;10.20;99.90;;;;;;5051990;28;20479;-69
2023/12/17 11:34:49;;;;;;;1999.90;999.90;;;10.30;99.90;;;;;;5051439;28;20899;-72
2023/12/17 11:37:18;;;;;;;1999.90;999.90;;;10.40;99.90;;;;;;5043847;28;20517;-73
2023/12/17 11:39:46;;;;;;;1999.90;999.90;;;10.40;99.90;;;;;;5051080;28;20492;-72
2023/12/17 11:42:13;;;;;;;1999.90;999.90;;;10.40;99.90;;;;;;5047633;28;20516;-73
2023/12/17 11:44:43;;;;;;;1999.90;999.90;;;10.30;99.90;;;;;;5050781;28;20416;-71
2023/12/17 11:47:10;;;;;;;1999.90;999.90;;;10.40;99.90;;;;;;5045576;28;20407;-71
2023/12/17 11:49:37;;;;;;;1999.90;999.90;;;10.50;99.90;;;;;;5047201;28;20511;-73
2023/12/17 11:52:13;;;;;;;1999.90;999.90;;;10.50;99.90;;;;;;5047849;28;20413;-70
2023/12/17 11:54:40;;;;;;;1999.90;999.90;;;10.40;99.90;;;;;;5048512;28;20417;-75
2023/12/17 11:57:19;;;;;;;1999.90;999.90;;;10.30;99.90;;;;;;5044409;28;20411;-73
2023/12/17 11:59:45;;;;;;;1999.90;999.90;;;10.30;99.90;;;;;;5044438;28;20495;-72
2023/12/17 12:02:15;;;;;;;1999.90;999.90;;;10.40;99.90;;;;;;5052521;28;20413;-72
2023/12/17 12:04:42;;;;;;;1999.90;999.90;;;10.30;99.90;;;;;;5048493;28;20434;-73
2023/12/17 12:07:11;;;;;;;1999.90;999.90;;;10.40;99.90;;;;;;5042532;28;20408;-73
2023/12/17 12:09:38;;;;;;;1999.90;999.90;;;10.40;99.90;;;;;;5052863;28;20412;-73